createdAt,value
2022-07-27T16:01:42.666Z,20.00
2022-07-27T16:03:14.994Z,17.00
2022-07-27T16:04:47.159Z,18.80
2022-07-27T16:06:19.312Z,15.20
2022-07-27T16:07:51.981Z,17.60
2022-07-27T16:09:23.803Z,20.60
2022-07-27T16:10:55.624Z,16.40
2022-07-27T16:12:27.541Z,18.40
2022-07-27T16:13:59.416Z,18.80
2022-07-27T16:15:50.236Z,17.40
2022-07-27T16:17:22.202Z,15.80
2022-07-27T16:18:55.177Z,14.80
2022-07-27T16:20:26.932Z,14.20
2022-07-27T16:21:58.727Z,11.80
2022-07-27T16:23:31.757Z,11.00
2022-07-27T16:25:05.502Z,12.00
2022-07-27T16:26:37.258Z,14.60
2022-07-27T16:28:10.654Z,15.80
2022-07-27T16:29:42.505Z,14.00
2022-07-27T16:31:15.587Z,13.00
2022-07-27T16:32:47.773Z,14.60
2022-07-27T16:34:19.501Z,14.00
2022-07-27T16:35:51.489Z,14.00
2022-07-27T16:37:23.339Z,14.60
2022-07-27T16:38:55.218Z,14.40
2022-07-27T16:40:27.067Z,11.60
2022-07-27T16:41:58.896Z,12.40
2022-07-27T16:43:37.350Z,12.60
2022-07-27T16:45:11.050Z,15.00
2022-07-27T16:46:43.856Z,11.60
2022-07-27T16:48:15.717Z,13.20
2022-07-27T16:49:47.959Z,15.00
2022-07-27T16:51:27.113Z,13.80
2022-07-27T16:52:58.931Z,15.60
2022-07-27T16:54:35.602Z,15.60
2022-07-27T16:56:11.062Z,15.40
2022-07-27T16:57:42.882Z,16.60
2022-07-27T16:59:17.123Z,12.00
2022-07-27T17:00:48.919Z,10.20
2022-07-27T17:02:21.422Z,18.00
2022-07-27T17:03:53.421Z,18.60
2022-07-27T17:05:26.771Z,16.00
2022-07-27T17:06:58.498Z,15.40
2022-07-27T17:08:30.328Z,15.80
2022-07-27T17:10:02.336Z,18.20
2022-07-27T17:11:37.386Z,17.40
2022-07-27T17:13:13.583Z,18.40
2022-07-27T17:14:46.564Z,17.60
2022-07-27T17:16:19.792Z,16.80
2022-07-27T17:17:51.809Z,17.40
2022-07-27T17:19:23.500Z,14.00
2022-07-27T17:20:55.526Z,17.80
2022-07-27T17:22:27.334Z,20.00
2022-07-27T17:24:02.346Z,20.00
2022-07-27T17:25:34.287Z,20.00
2022-07-27T17:27:06.506Z,15.20
2022-07-27T17:28:40.240Z,15.00
2022-07-27T17:30:13.883Z,23.60
2022-07-27T17:31:45.720Z,21.00
2022-07-27T17:33:18.344Z,24.00
2022-07-27T17:34:51.470Z,22.40
2022-07-27T17:36:23.349Z,22.80
2022-07-27T17:38:06.059Z,23.00
2022-07-27T17:39:39.389Z,24.00
2022-07-27T17:41:12.371Z,22.80
2022-07-27T17:42:44.433Z,24.00
2022-07-27T17:44:16.256Z,25.60
2022-07-27T17:45:48.503Z,22.00
2022-07-27T17:47:23.183Z,23.20
2022-07-27T17:48:55.226Z,24.00
2022-07-27T17:50:27.340Z,26.00
2022-07-27T17:51:59.132Z,23.80
2022-07-27T17:53:30.863Z,27.20
2022-07-27T17:55:02.986Z,25.60
2022-07-27T17:56:35.773Z,25.60
2022-07-27T17:58:07.521Z,27.20
2022-07-27T17:59:39.578Z,27.40
2022-07-27T18:01:11.829Z,27.40
2022-07-27T18:02:43.651Z,28.60
2022-07-27T18:04:18.123Z,29.40
2022-07-27T18:05:50.089Z,26.20
2022-07-27T18:07:21.863Z,31.00
2022-07-27T18:08:53.761Z,22.40
2022-07-27T18:10:25.515Z,28.20
2022-07-27T18:11:58.023Z,29.00
2022-07-27T18:13:37.969Z,28.60
2022-07-27T18:15:30.314Z,28.00
2022-07-27T18:17:02.745Z,26.80
2022-07-27T18:18:36.271Z,26.20
2022-07-27T18:20:11.431Z,26.20
2022-07-27T18:21:43.133Z,21.00
2022-07-27T18:23:15.537Z,25.40
2022-07-27T18:24:47.726Z,23.00
2022-07-27T18:26:20.444Z,18.60
2022-07-27T18:28:05.740Z,22.20
2022-07-27T18:29:45.473Z,22.00
2022-07-27T18:31:18.282Z,19.60
2022-07-27T18:32:50.121Z,21.80
2022-07-27T18:34:22.119Z,21.60
2022-07-27T18:35:54.014Z,18.00
2022-07-27T18:37:27.975Z,15.60
2022-07-27T18:38:59.912Z,15.00
2022-07-27T18:40:31.718Z,11.60
2022-07-27T18:42:06.169Z,18.40
2022-07-27T18:43:38.101Z,19.00
2022-07-27T18:45:12.256Z,17.60
2022-07-27T18:46:44.348Z,14.80
2022-07-27T18:48:16.771Z,17.20
2022-07-27T18:49:48.964Z,13.80
2022-07-27T18:51:24.424Z,16.80
2022-07-27T18:52:57.406Z,16.20
2022-07-27T18:54:29.792Z,15.60
2022-07-27T18:56:01.667Z,15.40
2022-07-27T18:57:33.668Z,12.80
2022-07-27T18:59:06.072Z,11.60
2022-07-27T19:00:38.033Z,16.60
2022-07-27T19:02:10.524Z,15.20
2022-07-27T19:03:43.499Z,14.60
2022-07-27T19:05:21.185Z,14.20
2022-07-27T19:07:06.301Z,14.00
2022-07-27T19:08:39.642Z,13.60
2022-07-27T19:10:11.574Z,15.00
2022-07-27T19:11:43.408Z,14.40
2022-07-27T19:13:15.243Z,9.00
2022-07-27T19:14:50.068Z,11.40
2022-07-27T19:16:23.128Z,10.80
2022-07-27T19:17:55.140Z,12.00
2022-07-27T19:19:27.189Z,14.00
2022-07-27T19:20:59.639Z,12.40
2022-07-27T19:22:31.720Z,17.20
2022-07-27T19:24:04.004Z,13.20
2022-07-27T19:25:35.827Z,14.80
2022-07-27T19:27:07.616Z,12.40
2022-07-27T19:28:41.389Z,12.60
2022-07-27T19:30:13.612Z,12.40
2022-07-27T19:31:45.756Z,14.00
2022-07-27T19:33:18.778Z,13.60
2022-07-27T19:34:50.591Z,19.60
2022-07-27T19:36:23.337Z,14.60
2022-07-27T19:37:55.274Z,17.20
2022-07-27T19:39:27.291Z,15.80
2022-07-27T19:41:19.201Z,18.40
2022-07-27T19:42:51.449Z,15.00
2022-07-27T19:44:23.235Z,16.00
2022-07-27T19:45:55.083Z,18.80
2022-07-27T19:47:27.035Z,17.40
2022-07-27T19:48:58.980Z,27.20
2022-07-27T19:50:30.757Z,29.80
2022-07-27T19:52:04.349Z,31.20
2022-07-27T19:53:36.169Z,28.40
2022-07-27T19:55:09.429Z,31.20
2022-07-27T19:56:41.235Z,28.20
2022-07-27T19:58:13.099Z,27.20
2022-07-27T19:59:55.388Z,26.60
2022-07-27T20:01:28.593Z,26.60
2022-07-27T20:03:00.499Z,24.60
2022-07-27T20:04:32.908Z,24.00
2022-07-27T20:06:06.920Z,25.60
2022-07-27T20:07:38.808Z,25.60
2022-07-27T20:09:10.846Z,24.00
2022-07-27T20:10:43.152Z,22.20
2022-07-27T20:12:15.154Z,22.80
2022-07-27T20:13:46.994Z,19.20
2022-07-27T20:15:18.822Z,22.20
2022-07-27T20:16:53.264Z,22.00
2022-07-27T20:18:25.678Z,17.40
2022-07-27T20:19:57.376Z,21.00
2022-07-27T20:21:29.087Z,20.00
2022-07-27T20:23:00.891Z,18.60
2022-07-27T20:24:32.990Z,19.60
2022-07-27T20:26:05.145Z,17.80
2022-07-27T20:27:37.463Z,15.40
2022-07-27T20:29:10.073Z,15.40
2022-07-27T20:30:42.185Z,16.40
2022-07-27T20:32:14.099Z,17.00
2022-07-27T20:33:45.975Z,18.00
2022-07-27T20:35:17.876Z,14.80
2022-07-27T20:36:50.356Z,13.80
2022-07-27T20:38:22.178Z,15.60
2022-07-27T20:39:54.201Z,14.60
2022-07-27T20:41:27.065Z,15.20
2022-07-27T20:42:59.460Z,12.80
2022-07-27T20:44:31.789Z,14.20
2022-07-27T20:46:03.938Z,12.80
2022-07-27T20:47:38.239Z,10.20
2022-07-27T20:49:10.406Z,10.80
2022-07-27T20:50:42.560Z,10.00
2022-07-27T20:52:14.379Z,11.20
2022-07-27T20:53:46.232Z,11.00
2022-07-27T20:55:18.114Z,12.00
2022-07-27T20:56:51.083Z,9.60
2022-07-27T20:58:23.013Z,11.20
2022-07-27T20:59:54.812Z,9.00
2022-07-27T21:01:26.798Z,8.40
2022-07-27T21:02:58.749Z,8.40
2022-07-27T21:04:30.526Z,9.20
2022-07-27T21:06:02.600Z,9.40
2022-07-27T21:07:34.446Z,10.00
2022-07-27T21:09:07.648Z,10.00
2022-07-27T21:10:39.346Z,8.20
2022-07-27T21:12:11.442Z,9.60
2022-07-27T21:13:43.248Z,6.20
2022-07-27T21:15:15.159Z,9.80
2022-07-27T21:16:48.705Z,9.40
2022-07-27T21:18:20.552Z,6.60
2022-07-27T21:19:53.437Z,7.20
2022-07-27T21:21:27.575Z,9.00
2022-07-27T21:23:18.154Z,8.20
2022-07-27T21:24:49.880Z,8.20
2022-07-27T21:26:21.645Z,10.60
2022-07-27T21:27:55.914Z,9.00
2022-07-27T21:29:27.774Z,14.20
2022-07-27T21:31:03.680Z,11.40
2022-07-27T21:32:35.435Z,9.40
2022-07-27T21:34:08.116Z,14.60
2022-07-27T21:35:39.972Z,13.60
2022-07-27T21:37:11.857Z,11.80
2022-07-27T21:38:43.671Z,12.20
2022-07-27T21:40:15.526Z,11.00
2022-07-27T21:41:47.460Z,15.20
2022-07-27T21:43:19.394Z,14.00
2022-07-27T21:44:53.819Z,14.00
2022-07-27T21:46:25.914Z,12.00
2022-07-27T21:47:58.157Z,13.00
2022-07-27T21:49:34.675Z,11.20
2022-07-27T21:51:06.566Z,14.00
2022-07-27T21:52:38.595Z,14.00
2022-07-27T21:54:10.697Z,13.20
2022-07-27T21:55:42.915Z,11.40
2022-07-27T21:57:14.755Z,13.00
2022-07-27T21:58:47.966Z,14.20
2022-07-27T22:00:29.538Z,11.20
2022-07-27T22:02:01.497Z,14.40
2022-07-27T22:03:33.324Z,12.80
2022-07-27T22:05:05.501Z,11.40
2022-07-27T22:06:38.293Z,14.40
2022-07-27T22:08:10.966Z,27.20
2022-07-27T22:09:44.320Z,28.20
2022-07-27T22:11:16.235Z,27.00
2022-07-27T22:12:47.990Z,24.00
2022-07-27T22:14:19.876Z,22.80
2022-07-27T22:15:51.722Z,20.20
2022-07-27T22:17:23.566Z,18.40
2022-07-27T22:18:56.751Z,20.00
2022-07-27T22:20:28.695Z,13.20
2022-07-27T22:22:00.498Z,15.80
2022-07-27T22:23:32.264Z,16.00
2022-07-27T22:25:04.387Z,14.60
2022-07-27T22:28:32.332Z,14.80
2022-07-27T22:30:04.510Z,13.40
2022-07-27T22:31:36.260Z,14.80
2022-07-27T22:33:08.311Z,13.00
2022-07-27T22:34:40.462Z,12.60
